Terminal Aerodrome Forecast
Issued by NWS

Home | Current Version | Previous Version | Graphics & Text | Print | Product List | Glossary On
Versions: 1 2 3 4 5 6 7 8 9 10 11 12 13 14 15 16 17 18 19 20 21 22 23
000
FTUS43 KGRB 240227 AAB
TAFMTW
TAF AMD
KMTW 240227Z 2402/2424 04007KT P6SM SCT030 BKN140
      TEMPO 2402/2406 BKN030
     FM241100 11008KT P6SM SCT025 BKN070=

USA.gov is the U.S. government's official web portal to all federal, state and local government web resources and services.